< < Back
Terminal Aerodrome Forecast


Current Version              Previous Versions:   1  2  3  4  5  6  7  8  9  

Terminal Aerodrome Forecast

184
FTUS44 KMRX 232323
TAFCHA
TAF
KCHA 232323Z 2400/2424 01005KT 1 1/2SM -DZ BR OVC006
     FM240900 32007KT 5SM -RASN BR BKN015 OVC025
     FM241300 31009KT P6SM SCT025 OVC035
     FM241600 30008KT P6SM SCT040
     FM241900 26005KT P6SM SKC=



Latest METAR

930
SAUS80 KWBC 250300
MTRCHA
METAR KCHA 250253Z 00000KT 10SM CLR 02/M01 A2996 RMK AO2 SLP148
T00221011 51011


USA.gov is the U.S. government's official web portal to all federal, state and local government web resources and services.